Aeroporto :
LOGIN :

Iscrizione | Disclaimer

   EN    FR    IT 

 










Sommario :    VFR   VFR Marginale   IFR   IFR Intensivo   IFR Molto Intensivo
Visibilità : 
Base nubi : 
>= 8 km
>= 3000ft
5 / 8 km
1000 / 3000 ft
1500m / 5 km
500 / 1000 ft
800 / 1500m
200 / 500 ft
< 800m
< 200 ft
Simboli :   Temporali  Nebbia  Neve Forte  Precipitazioni Forti  Vento > 20 kt
SIGMETs :   Varie  Temporali  Ghiacco  Turbolenza  Onda orograficha  Ceneri Vulcaniche






- Altitudine del aeroporto : 463 ft
- Codice IATA : QAS


DAOI - Chlef Int.

ULTIMO METAR :
  • 192000Z 08008KT 9999 FEW025 13/03 Q1027

METARs OBSOLETI :
  • 191900Z 02010KT 9999 FEW025 14/06 Q1027
  • 191800Z 02010KT 9999 FEW025 15/07 Q1026

TAF TAF DAOI
Valido dal 19 a 18 ore il 20 a 18 ore UTC


191700Z 1918/2018 06010KT 9999 FEW026
BECMG 1921/2024 VRB02KT
TEMPO 2002/2008 0800 FG
BECMG 2009/2012 36005KT 9999 FEW026
BECMG 2015/2018 VRB02KT CAVOK



MetMap, La meteo Aeronautica in un colpo d'occhio ! - Copyright ORBIFLY Dicembre 2007 - Disclaimer

ORBIFLY MET'MAP TEAM :

Programmazione e sviluppo : Alexandra Zaïnal
Concezione : Baudouin d'Aumeries
Aiuto per la programmazione : Marc-Olivier Méhu
Supporto tecnico e logistico : Manuel Goepfert
Aiuto per la traduzione : Arnaldo La Scala

Contatto : metmap@orbifly.com




FONTI E CREDITI :

   NOAA